METAR Data
IDs: Format: Raw Decoded Include TAF

Data at: 1834 UTC 16 Oct 2021

EGWC 161350Z 19010KT 9999 SCT045 15/11 Q1018